createdAt,value
2022-09-02T00:02:42.707Z,13.12
2022-09-02T00:08:14.660Z,13.05
2022-09-02T00:13:46.616Z,12.95
2022-09-02T00:19:18.670Z,12.87
2022-09-02T00:24:50.551Z,12.82
2022-09-02T00:30:22.261Z,12.81
2022-09-02T00:35:54.201Z,12.78
2022-09-02T00:41:25.985Z,12.74
2022-09-02T00:46:57.867Z,12.68
2022-09-02T00:52:29.699Z,12.60
2022-09-02T00:58:01.338Z,12.53
2022-09-02T01:03:32.864Z,12.45
2022-09-02T01:09:04.733Z,12.38
2022-09-02T01:14:36.284Z,12.34
2022-09-02T01:25:39.776Z,12.33
2022-09-02T01:31:11.487Z,12.31
2022-09-02T01:36:43.096Z,12.29
2022-09-02T01:42:14.851Z,12.26
2022-09-02T01:47:46.818Z,12.21
2022-09-02T01:53:19.174Z,12.15
2022-09-02T01:58:51.314Z,12.11
2022-09-02T02:04:22.728Z,12.04
2022-09-02T02:09:54.912Z,12.00
2022-09-02T02:17:49.259Z,11.49
2022-09-02T02:23:21.145Z,11.68
2022-09-02T02:28:52.780Z,11.79
2022-09-02T02:34:24.607Z,11.86
2022-09-02T02:39:56.403Z,11.88
2022-09-02T02:45:28.311Z,11.87
2022-09-02T02:56:31.882Z,11.83
2022-09-02T03:02:03.644Z,11.77
2022-09-02T03:07:35.093Z,11.73
2022-09-02T03:13:07.072Z,11.69
2022-09-02T03:18:38.812Z,11.66
2022-09-02T03:24:10.440Z,11.64
2022-09-02T03:29:42.078Z,11.60
2022-09-02T03:35:13.832Z,11.58
2022-09-02T03:40:45.711Z,11.56
2022-09-02T03:46:17.320Z,11.51
2022-09-02T03:51:49.528Z,11.44
2022-09-02T03:57:21.564Z,11.38
2022-09-02T04:02:53.547Z,11.33
2022-09-02T04:08:25.336Z,11.28
2022-09-02T04:13:56.939Z,11.22
2022-09-02T04:19:28.619Z,11.17
2022-09-02T04:25:00.432Z,11.13
2022-09-02T04:30:32.127Z,11.09
2022-09-02T04:36:03.658Z,11.05
2022-09-02T04:47:09.135Z,11.06
2022-09-02T04:52:41.103Z,11.09
2022-09-02T04:58:12.942Z,11.14
2022-09-02T05:03:44.817Z,11.22
2022-09-02T05:09:16.505Z,11.48
2022-09-02T05:14:48.272Z,11.99
2022-09-02T05:20:20.129Z,12.61
2022-09-02T05:25:52.082Z,13.24
2022-09-02T05:31:23.759Z,13.85
2022-09-02T05:36:55.649Z,14.37
2022-09-02T05:44:47.588Z,14.97
2022-09-02T05:55:48.796Z,15.26
2022-09-02T06:01:20.668Z,15.65
2022-09-02T06:06:52.371Z,16.11
2022-09-02T06:17:53.767Z,16.78
2022-09-02T06:23:25.316Z,17.00
2022-09-02T06:28:57.241Z,17.39
2022-09-02T06:34:28.931Z,17.90
2022-09-02T06:40:00.633Z,18.22
2022-09-02T06:45:32.759Z,18.47
2022-09-02T06:51:04.602Z,18.84
2022-09-02T06:56:36.225Z,19.03
2022-09-02T07:02:08.303Z,19.18
2022-09-02T07:07:39.565Z,19.34
2022-09-02T07:13:11.736Z,19.46
2022-09-02T07:18:43.374Z,19.52
2022-09-02T07:24:15.194Z,19.57
2022-09-02T07:29:47.202Z,19.67
2022-09-02T07:43:07.655Z,19.88
2022-09-02T07:48:39.564Z,20.24
2022-09-02T07:54:11.422Z,20.41
2022-09-02T08:02:03.288Z,19.99
2022-09-02T08:07:35.216Z,20.50
2022-09-02T08:13:06.943Z,20.83
2022-09-02T08:24:08.548Z,20.84
2022-09-02T08:29:40.136Z,20.79
2022-09-02T08:35:11.890Z,20.65
2022-09-02T08:40:43.796Z,20.71
2022-09-02T08:46:15.542Z,20.83
2022-09-02T08:51:47.211Z,20.98
2022-09-02T08:57:19.045Z,21.16
2022-09-02T09:02:51.039Z,21.19
2022-09-02T09:08:22.704Z,21.26
2022-09-02T09:13:54.347Z,21.35
2022-09-02T09:24:55.949Z,21.21
2022-09-02T09:30:27.812Z,21.31
2022-09-02T09:35:59.499Z,21.32
2022-09-02T09:47:01.281Z,20.79
2022-09-02T09:52:33.122Z,20.61
2022-09-02T09:58:04.764Z,20.58
2022-09-02T10:03:36.475Z,20.49
2022-09-02T10:09:08.174Z,20.52
2022-09-02T10:14:40.123Z,20.64
2022-09-02T10:20:11.953Z,20.63
2022-09-02T10:27:56.325Z,19.88
2022-09-02T10:38:57.667Z,20.45
2022-09-02T10:44:29.525Z,20.55
2022-09-02T10:55:32.097Z,20.55
2022-09-02T11:01:04.059Z,20.63
2022-09-02T11:06:51.809Z,20.74
2022-09-02T11:17:39.495Z,20.97
2022-09-02T11:28:42.912Z,21.25
2022-09-02T11:39:54.488Z,21.15
2022-09-02T11:45:18.459Z,21.16
2022-09-02T11:50:50.263Z,21.25
2022-09-02T11:56:22.039Z,21.30
2022-09-02T12:01:53.701Z,21.32
2022-09-02T12:07:26.777Z,21.30
2022-09-02T12:12:57.163Z,21.30
2022-09-02T12:18:28.901Z,21.33
2022-09-02T12:24:00.990Z,21.43
2022-09-02T12:29:32.832Z,21.57
2022-09-02T12:35:05.287Z,21.69
2022-09-02T12:40:36.550Z,21.71
2022-09-02T12:46:08.804Z,21.75
2022-09-02T12:51:40.545Z,21.77
2022-09-02T12:57:12.688Z,21.78
2022-09-02T13:08:15.356Z,21.73
2022-09-02T13:13:47.388Z,21.70
2022-09-02T13:19:20.805Z,21.80
2022-09-02T13:24:52.470Z,21.93
2022-09-02T13:30:24.215Z,21.97
2022-09-02T13:41:27.710Z,21.99
2022-09-02T13:46:59.593Z,21.96
2022-09-02T13:53:34.311Z,21.96
2022-09-02T14:00:23.732Z,21.68
2022-09-02T14:05:55.580Z,21.91
2022-09-02T14:11:27.244Z,22.10
2022-09-02T14:16:59.802Z,22.21
2022-09-02T14:22:31.355Z,22.20
2022-09-02T14:28:02.945Z,22.09
2022-09-02T14:33:34.658Z,22.09
2022-09-02T14:39:06.581Z,22.08
2022-09-02T14:44:38.061Z,22.08
2022-09-02T14:50:09.959Z,22.10
2022-09-02T14:55:41.647Z,22.16
2022-09-02T15:01:13.659Z,22.18
2022-09-02T15:06:45.489Z,22.15
2022-09-02T15:12:20.124Z,22.20
2022-09-02T15:17:48.666Z,22.18
2022-09-02T15:23:20.718Z,22.17
2022-09-02T15:34:24.331Z,22.18
2022-09-02T15:39:56.277Z,22.15
2022-09-02T15:45:27.947Z,22.10
2022-09-02T15:50:59.808Z,22.07
2022-09-02T15:56:31.373Z,22.07
2022-09-02T16:02:03.380Z,22.04
2022-09-02T16:07:35.136Z,21.97
2022-09-02T16:13:06.733Z,21.93
2022-09-02T16:18:38.971Z,21.90
2022-09-02T16:24:10.392Z,21.83
2022-09-02T16:29:42.166Z,21.77
2022-09-02T16:35:13.986Z,21.78
2022-09-02T16:40:45.667Z,21.81
2022-09-02T16:46:18.204Z,21.72
2022-09-02T16:51:50.427Z,21.58
2022-09-02T16:57:22.164Z,21.49
2022-09-02T17:02:54.312Z,21.36
2022-09-02T17:08:25.714Z,21.22
2022-09-02T17:13:57.803Z,21.11
2022-09-02T17:19:32.320Z,20.97
2022-09-02T17:30:32.625Z,20.74
2022-09-02T17:41:33.722Z,20.43
2022-09-02T17:52:37.282Z,20.14
2022-09-02T17:58:09.328Z,19.98
2022-09-02T18:03:40.965Z,19.85
2022-09-02T18:20:11.592Z,19.43
2022-09-02T18:25:43.394Z,19.29
2022-09-02T18:31:15.162Z,19.15
2022-09-02T18:36:46.633Z,19.00
2022-09-02T18:42:18.286Z,18.85
2022-09-02T18:47:50.097Z,18.73
2022-09-02T18:53:21.378Z,18.60
2022-09-02T19:04:27.388Z,18.33
2022-09-02T19:09:55.808Z,18.21
2022-09-02T19:15:27.216Z,18.14
2022-09-02T19:26:28.166Z,17.93
2022-09-02T19:32:05.899Z,17.80
2022-09-02T19:37:44.212Z,17.66
2022-09-02T19:43:08.994Z,17.52
2022-09-02T19:48:40.693Z,17.41
2022-09-02T19:54:12.623Z,17.33
2022-09-02T19:59:44.427Z,17.26
2022-09-02T20:05:16.248Z,17.17
2022-09-02T20:16:17.738Z,17.07
2022-09-02T20:21:49.328Z,16.99
2022-09-02T20:32:51.097Z,16.85
2022-09-02T20:38:23.531Z,16.78
2022-09-02T20:43:56.067Z,16.74
2022-09-02T20:49:28.198Z,16.69
2022-09-02T20:57:20.593Z,16.21
2022-09-02T21:02:52.530Z,16.38
2022-09-02T21:08:24.398Z,16.42
2022-09-02T21:13:56.382Z,16.46
2022-09-02T21:19:27.821Z,16.45
2022-09-02T21:24:59.660Z,16.37
2022-09-02T21:30:31.605Z,16.29
2022-09-02T21:36:06.850Z,16.24
2022-09-02T21:41:38.434Z,16.18
2022-09-02T21:47:10.381Z,16.09
2022-09-02T21:52:42.267Z,15.97
2022-09-02T21:58:14.017Z,15.84
2022-09-02T22:03:45.763Z,15.72
2022-09-02T22:09:17.893Z,15.59
2022-09-02T22:22:39.212Z,15.19
2022-09-02T22:28:10.591Z,15.26
2022-09-02T22:39:16.721Z,15.32
2022-09-02T22:50:13.191Z,15.24
2022-09-02T22:55:45.267Z,15.17
2022-09-02T23:01:17.058Z,15.14
2022-09-02T23:06:48.629Z,15.13
2022-09-02T23:12:20.754Z,15.11
2022-09-02T23:17:52.319Z,15.07
2022-09-02T23:23:24.336Z,15.06
2022-09-02T23:28:56.168Z,15.04
2022-09-02T23:34:27.645Z,14.98
2022-09-02T23:39:59.527Z,14.89
2022-09-02T23:45:31.460Z,14.83
2022-09-02T23:51:03.380Z,14.78
2022-09-02T23:56:34.854Z,14.72
